createdAt,value
2018-09-15T00:02:28.267Z,7.87
2018-09-15T00:04:57.586Z,7.75
2018-09-15T00:07:26.829Z,6.92
2018-09-15T00:09:55.985Z,7.30
2018-09-15T00:12:25.139Z,7.20
2018-09-15T00:14:54.280Z,7.05
2018-09-15T00:17:23.486Z,7.22
2018-09-15T00:19:52.742Z,7.08
2018-09-15T00:22:21.979Z,7.00
2018-09-15T00:24:51.196Z,6.45
2018-09-15T00:27:20.472Z,6.30
2018-09-15T00:29:49.596Z,5.80
2018-09-15T00:32:18.875Z,5.67
2018-09-15T00:34:48.099Z,5.70
2018-09-15T00:37:17.271Z,5.70
2018-09-15T00:39:46.669Z,5.67
2018-09-15T00:42:15.987Z,5.83
2018-09-15T00:44:45.266Z,5.80
2018-09-15T00:47:14.475Z,5.33
2018-09-15T00:49:43.753Z,5.75
2018-09-15T00:52:12.974Z,5.40
2018-09-15T00:54:42.072Z,5.50
2018-09-15T00:57:11.247Z,5.90
2018-09-15T00:59:40.367Z,6.05
2018-09-15T01:02:09.735Z,5.90
2018-09-15T01:04:38.964Z,5.90
2018-09-15T01:07:08.251Z,5.58
2018-09-15T01:09:37.364Z,6.00
2018-09-15T01:12:06.744Z,5.60
2018-09-15T01:14:35.962Z,5.83
2018-09-15T01:17:05.151Z,5.90
2018-09-15T01:19:34.522Z,5.67
2018-09-15T01:22:03.855Z,6.20
2018-09-15T01:24:33.134Z,6.33
2018-09-15T01:27:02.377Z,5.85
2018-09-15T01:29:31.539Z,5.78
2018-09-15T01:32:00.746Z,6.03
2018-09-15T01:34:29.902Z,5.60
2018-09-15T01:36:59.042Z,6.10
2018-09-15T01:39:28.448Z,5.75
2018-09-15T01:41:57.606Z,5.90
2018-09-15T01:44:26.846Z,6.00
2018-09-15T01:46:56.120Z,6.67
2018-09-15T01:49:25.343Z,6.62
2018-09-15T01:51:54.666Z,6.90
2018-09-15T01:54:23.934Z,6.97
2018-09-15T01:56:53.047Z,6.33
2018-09-15T01:59:22.394Z,6.10
2018-09-15T02:01:51.534Z,6.08
2018-09-15T02:04:20.744Z,5.80
2018-09-15T02:06:50.123Z,5.97
2018-09-15T02:09:19.407Z,6.60
2018-09-15T02:11:48.724Z,6.50
2018-09-15T02:14:18.047Z,6.53
2018-09-15T02:16:47.330Z,6.28
2018-09-15T02:19:16.701Z,6.33
2018-09-15T02:21:46.031Z,6.47
2018-09-15T02:24:15.331Z,6.83
2018-09-15T02:26:44.507Z,6.53
2018-09-15T02:29:13.627Z,6.40
2018-09-15T02:31:42.888Z,6.85
2018-09-15T02:34:12.123Z,6.78
2018-09-15T02:36:41.468Z,6.42
2018-09-15T02:39:11.448Z,6.78
2018-09-15T02:41:40.740Z,6.67
2018-09-15T02:44:09.905Z,6.15
2018-09-15T02:46:38.928Z,6.15
2018-09-15T02:49:08.203Z,6.58
2018-09-15T02:51:37.418Z,6.27
2018-09-15T02:54:06.797Z,6.75
2018-09-15T02:56:36.127Z,6.90
2018-09-15T02:59:05.436Z,6.15
2018-09-15T03:01:34.600Z,6.35
2018-09-15T03:04:03.919Z,5.95
2018-09-15T03:06:33.199Z,5.70
2018-09-15T03:09:02.314Z,5.83
2018-09-15T03:11:31.478Z,5.97
2018-09-15T03:14:00.629Z,6.15
2018-09-15T03:16:29.796Z,5.87
2018-09-15T03:18:58.972Z,5.75
2018-09-15T03:21:28.216Z,6.40
2018-09-15T03:23:57.475Z,5.83
2018-09-15T03:26:26.804Z,6.17
2018-09-15T03:28:55.975Z,6.28
2018-09-15T03:31:25.255Z,6.17
2018-09-15T03:33:54.571Z,5.60
2018-09-15T03:36:23.666Z,6.35
2018-09-15T03:38:52.782Z,6.03
2018-09-15T03:41:22.192Z,5.80
2018-09-15T03:43:51.491Z,6.28
2018-09-15T03:46:20.861Z,6.28
2018-09-15T03:48:49.991Z,6.08
2018-09-15T03:51:19.202Z,6.03
2018-09-15T03:53:48.460Z,6.60
2018-09-15T03:56:17.791Z,6.37
2018-09-15T03:58:47.308Z,5.95
2018-09-15T04:01:16.618Z,5.92
2018-09-15T04:03:45.860Z,6.93
2018-09-15T04:06:15.491Z,6.22
2018-09-15T04:08:44.655Z,7.33
2018-09-15T04:11:14.004Z,7.10
2018-09-15T04:13:43.167Z,7.55
2018-09-15T04:16:12.291Z,8.05
2018-09-15T04:18:41.558Z,7.83
2018-09-15T04:21:10.685Z,8.50
2018-09-15T04:23:39.987Z,8.90
2018-09-15T04:26:09.486Z,10.00
2018-09-15T04:28:38.895Z,10.20
2018-09-15T04:31:07.954Z,10.53
2018-09-15T04:33:37.111Z,10.90
2018-09-15T04:36:06.263Z,10.32
2018-09-15T04:38:35.570Z,10.70
2018-09-15T04:41:04.975Z,11.08
2018-09-15T04:43:34.279Z,10.90
2018-09-15T04:46:03.599Z,12.20
2018-09-15T04:48:32.775Z,12.18
2018-09-15T04:51:02.082Z,12.70
2018-09-15T04:53:31.251Z,13.25
2018-09-15T04:56:00.363Z,13.15
2018-09-15T04:58:29.875Z,13.60
2018-09-15T05:00:59.228Z,15.05
2018-09-15T05:03:28.458Z,15.58
2018-09-15T05:05:57.639Z,19.33
2018-09-15T05:08:26.871Z,16.93
2018-09-15T05:10:56.171Z,17.02
2018-09-15T05:13:25.859Z,16.97
2018-09-15T05:15:55.281Z,17.17
2018-09-15T05:18:24.805Z,18.87
2018-09-15T05:20:54.189Z,20.85
2018-09-15T05:23:23.555Z,21.77
2018-09-15T05:25:53.053Z,20.37
2018-09-15T05:28:22.924Z,21.60
2018-09-15T05:30:52.582Z,21.43
2018-09-15T05:33:21.803Z,24.25
2018-09-15T05:35:51.730Z,21.65
2018-09-15T05:38:21.559Z,22.90
2018-09-15T05:40:51.311Z,23.38
2018-09-15T05:43:20.684Z,22.52
2018-09-15T05:45:50.216Z,22.75
2018-09-15T05:48:20.044Z,22.90
2018-09-15T05:50:50.001Z,24.65
2018-09-15T05:53:19.339Z,23.95
2018-09-15T05:55:48.912Z,22.55
2018-09-15T05:58:18.063Z,22.77
2018-09-15T06:00:47.191Z,24.85
2018-09-15T06:03:16.460Z,23.95
2018-09-15T06:05:45.611Z,25.75
2018-09-15T06:08:14.874Z,28.05
2018-09-15T06:10:44.159Z,28.30
2018-09-15T06:13:13.473Z,28.12
2018-09-15T06:15:42.751Z,25.30
2018-09-15T06:18:11.966Z,26.90
2018-09-15T06:20:41.236Z,25.80
2018-09-15T06:23:10.463Z,27.17
2018-09-15T06:25:39.663Z,26.35
2018-09-15T06:28:08.872Z,26.07
2018-09-15T06:30:38.145Z,26.97
2018-09-15T06:33:07.207Z,26.48
2018-09-15T06:35:36.747Z,30.35
2018-09-15T06:38:06.158Z,28.85
2018-09-15T06:40:35.542Z,27.42
2018-09-15T06:43:04.947Z,27.87
2018-09-15T06:45:34.130Z,28.35
2018-09-15T06:48:03.459Z,28.35
2018-09-15T06:50:32.842Z,26.87
2018-09-15T06:53:02.179Z,27.40
2018-09-15T06:55:31.984Z,27.82
2018-09-15T06:58:01.302Z,26.77
2018-09-15T07:00:31.066Z,28.37
2018-09-15T07:03:00.270Z,27.60
2018-09-15T07:05:29.391Z,27.90
2018-09-15T07:07:58.448Z,29.00
2018-09-15T07:10:29.111Z,29.82
2018-09-15T07:12:58.362Z,27.13
2018-09-15T07:15:28.211Z,27.30
2018-09-15T07:17:58.028Z,27.58
2018-09-15T07:20:27.812Z,27.02
2018-09-15T07:22:57.047Z,26.27
2018-09-15T07:25:26.340Z,25.23
2018-09-15T07:27:55.638Z,25.32
2018-09-15T07:30:25.044Z,24.85
2018-09-15T07:32:54.247Z,24.98
2018-09-15T07:35:23.551Z,23.57
2018-09-15T07:37:52.712Z,23.92
2018-09-15T07:40:21.831Z,23.80
2018-09-15T07:42:51.008Z,22.93
2018-09-15T07:45:20.351Z,23.90
2018-09-15T07:47:49.706Z,24.40
2018-09-15T07:50:19.151Z,23.83
2018-09-15T07:52:48.414Z,21.45
2018-09-15T07:55:17.631Z,23.60
2018-09-15T07:57:46.900Z,23.83
2018-09-15T08:00:16.152Z,22.07
2018-09-15T08:02:45.296Z,23.65
2018-09-15T08:05:14.422Z,24.40
2018-09-15T08:07:43.627Z,23.05
2018-09-15T08:10:13.740Z,23.67
2018-09-15T08:12:43.692Z,23.95
2018-09-15T08:15:12.948Z,24.05
2018-09-15T08:17:42.358Z,24.18
2018-09-15T08:20:11.722Z,23.40
2018-09-15T08:22:40.950Z,23.22
2018-09-15T08:25:10.499Z,24.10
2018-09-15T08:27:39.772Z,23.62
2018-09-15T08:30:09.023Z,21.80
2018-09-15T08:32:38.327Z,23.07
2018-09-15T08:35:07.659Z,24.25
2018-09-15T08:37:36.842Z,24.90
2018-09-15T08:40:06.057Z,22.48
2018-09-15T08:42:35.155Z,24.60
2018-09-15T08:45:04.408Z,23.10
2018-09-15T08:47:33.652Z,20.88
2018-09-15T08:50:02.841Z,21.42
2018-09-15T08:52:32.898Z,19.30
2018-09-15T08:55:02.172Z,20.72
2018-09-15T08:57:31.359Z,21.67
2018-09-15T09:00:00.531Z,20.60
2018-09-15T09:02:29.665Z,21.48
2018-09-15T09:04:58.855Z,24.60
2018-09-15T09:07:28.003Z,22.57
2018-09-15T09:09:57.120Z,22.05
2018-09-15T09:12:26.955Z,21.05
2018-09-15T09:14:56.241Z,20.75
2018-09-15T09:17:25.551Z,21.37
2018-09-15T09:19:54.931Z,19.52
2018-09-15T09:22:24.250Z,20.62
2018-09-15T09:24:53.395Z,17.48
2018-09-15T09:27:22.563Z,18.67
2018-09-15T09:29:51.750Z,18.52
2018-09-15T09:32:22.139Z,18.37
2018-09-15T09:34:51.386Z,20.05
2018-09-15T09:37:20.673Z,18.45
2018-09-15T09:39:50.012Z,19.12
2018-09-15T09:42:19.322Z,18.95
2018-09-15T09:44:48.574Z,18.53
2018-09-15T09:47:17.729Z,18.75
2018-09-15T09:49:46.901Z,18.23
2018-09-15T09:52:16.878Z,16.93
2018-09-15T09:54:46.252Z,15.85
2018-09-15T09:57:15.335Z,15.93
2018-09-15T09:59:44.883Z,14.50
2018-09-15T10:02:15.216Z,15.08
2018-09-15T10:04:44.395Z,14.85
2018-09-15T10:07:13.738Z,15.58
2018-09-15T10:09:42.847Z,13.78
2018-09-15T10:12:12.294Z,12.98
2018-09-15T10:14:41.677Z,12.65
2018-09-15T10:17:10.892Z,11.55
2018-09-15T10:19:40.099Z,13.15
2018-09-15T10:22:09.408Z,11.57
2018-09-15T10:24:38.600Z,11.33
2018-09-15T10:27:07.863Z,11.70
2018-09-15T10:29:36.992Z,10.10
2018-09-15T10:32:06.232Z,9.48
2018-09-15T10:34:35.588Z,12.00
2018-09-15T10:37:04.986Z,12.90
2018-09-15T10:39:34.270Z,10.50
2018-09-15T10:42:03.583Z,9.73
2018-09-15T10:44:32.756Z,10.40
2018-09-15T10:47:01.879Z,9.78
2018-09-15T10:49:31.030Z,12.13
2018-09-15T10:52:00.271Z,10.57
2018-09-15T10:54:29.778Z,9.30
2018-09-15T10:56:59.055Z,9.85
2018-09-15T10:59:28.267Z,9.58
2018-09-15T11:01:57.443Z,10.08
2018-09-15T11:04:26.679Z,8.28
2018-09-15T11:06:55.847Z,8.35
2018-09-15T11:09:24.928Z,8.93
2018-09-15T11:11:54.265Z,8.28
2018-09-15T11:14:23.432Z,7.95
2018-09-15T11:16:52.647Z,7.50
2018-09-15T11:19:21.718Z,8.58
2018-09-15T11:21:50.939Z,8.50
2018-09-15T11:24:20.255Z,9.98
2018-09-15T11:26:49.415Z,10.10
2018-09-15T11:29:18.556Z,7.87
2018-09-15T11:31:47.707Z,8.23
2018-09-15T11:34:16.823Z,8.40
2018-09-15T11:36:46.228Z,8.53
2018-09-15T11:39:15.626Z,7.30
2018-09-15T11:41:44.938Z,7.08
2018-09-15T11:44:14.251Z,7.40
2018-09-15T11:46:43.436Z,7.58
2018-09-15T11:49:12.599Z,12.03
2018-09-15T11:51:41.839Z,10.30
2018-09-15T11:54:11.006Z,9.48
2018-09-15T11:56:40.324Z,8.47
2018-09-15T11:59:09.619Z,9.53
2018-09-15T12:01:39.010Z,9.70
2018-09-15T12:04:08.122Z,9.70
2018-09-15T12:06:37.396Z,9.80
2018-09-15T12:09:08.351Z,10.60
2018-09-15T12:11:37.663Z,10.85
2018-09-15T12:14:07.046Z,9.90
2018-09-15T12:16:36.459Z,8.43
2018-09-15T12:19:05.745Z,7.70
2018-09-15T12:21:34.978Z,6.67
2018-09-15T12:24:04.130Z,7.90
2018-09-15T12:26:33.238Z,8.33
2018-09-15T12:29:02.756Z,8.20
2018-09-15T12:31:32.027Z,7.45
2018-09-15T12:34:01.278Z,7.33
2018-09-15T12:36:30.417Z,7.45
2018-09-15T12:38:59.547Z,7.10
2018-09-15T12:41:28.740Z,8.10
2018-09-15T12:43:57.902Z,8.90
2018-09-15T12:46:27.047Z,7.87
2018-09-15T12:48:56.309Z,9.98
2018-09-15T12:51:25.515Z,9.53
2018-09-15T12:53:54.799Z,8.18
2018-09-15T12:56:24.140Z,8.48
2018-09-15T12:58:53.535Z,8.63
2018-09-15T13:01:22.707Z,8.13
2018-09-15T13:03:51.831Z,7.47
2018-09-15T13:06:21.057Z,7.28
2018-09-15T13:08:50.231Z,6.67
2018-09-15T13:11:19.416Z,8.73
2018-09-15T13:13:48.571Z,8.10
2018-09-15T13:16:17.912Z,7.15
2018-09-15T13:18:47.293Z,6.42
2018-09-15T13:21:16.515Z,6.37
2018-09-15T13:23:45.708Z,7.65
2018-09-15T13:26:14.918Z,5.95
2018-09-15T13:28:44.183Z,6.75
2018-09-15T13:31:13.303Z,6.75
2018-09-15T13:33:42.675Z,5.93
2018-09-15T13:36:11.903Z,7.22
2018-09-15T13:38:41.179Z,6.80
2018-09-15T13:41:10.604Z,7.73
2018-09-15T13:43:39.676Z,7.83
2018-09-15T13:46:19.066Z,7.92
2018-09-15T13:48:52.822Z,7.17
2018-09-15T13:51:30.368Z,8.28
2018-09-15T13:54:08.502Z,7.30
2018-09-15T13:56:49.767Z,7.25
2018-09-15T13:59:28.803Z,7.90
2018-09-15T14:02:06.661Z,9.70
2018-09-15T14:04:43.477Z,8.78
2018-09-15T14:07:12.811Z,8.18
2018-09-15T14:09:43.800Z,6.92
2018-09-15T14:12:11.448Z,7.72
2018-09-15T14:14:40.650Z,7.30
2018-09-15T14:17:09.886Z,6.10
2018-09-15T14:19:39.331Z,6.72
2018-09-15T14:22:08.870Z,6.72
2018-09-15T14:24:38.395Z,7.67
2018-09-15T14:27:07.841Z,7.70
2018-09-15T14:29:37.138Z,7.25
2018-09-15T14:32:06.498Z,6.55
2018-09-15T14:34:35.912Z,8.25
2018-09-15T14:37:05.207Z,6.53
2018-09-15T14:39:34.488Z,8.85
2018-09-15T14:42:03.898Z,8.78
2018-09-15T14:44:33.199Z,6.85
2018-09-15T14:47:02.735Z,8.43
2018-09-15T14:49:32.193Z,6.70
2018-09-15T14:52:01.455Z,7.90
2018-09-15T14:54:30.742Z,8.37
2018-09-15T14:56:59.959Z,7.80
2018-09-15T14:59:29.275Z,9.03
2018-09-15T15:01:58.578Z,7.70
2018-09-15T15:04:27.751Z,7.67
2018-09-15T15:06:59.910Z,7.25
2018-09-15T15:09:29.365Z,8.50
2018-09-15T15:11:58.813Z,7.35
2018-09-15T15:14:28.016Z,6.95
2018-09-15T15:16:57.504Z,6.40
2018-09-15T15:19:26.722Z,6.78
2018-09-15T15:21:55.877Z,6.47
2018-09-15T15:24:24.948Z,6.00
2018-09-15T15:26:54.079Z,6.10
2018-09-15T15:29:23.197Z,7.53
2018-09-15T15:31:52.587Z,6.78
2018-09-15T15:34:21.798Z,6.17
2018-09-15T15:36:51.068Z,6.05
2018-09-15T15:39:20.314Z,6.25
2018-09-15T15:41:49.602Z,6.20
2018-09-15T15:44:18.840Z,6.03
2018-09-15T15:46:47.983Z,6.07
2018-09-15T15:49:17.211Z,5.70
2018-09-15T15:51:46.447Z,5.92
2018-09-15T15:54:15.486Z,6.00
2018-09-15T15:56:44.650Z,6.80
2018-09-15T15:59:13.774Z,6.30
2018-09-15T16:01:43.132Z,7.20
2018-09-15T16:04:12.475Z,6.92
2018-09-15T16:06:41.748Z,7.00
2018-09-15T16:09:10.971Z,6.12
2018-09-15T16:11:40.162Z,6.28
2018-09-15T16:14:09.473Z,6.50
2018-09-15T16:16:38.653Z,6.53
2018-09-15T16:19:07.748Z,5.85
2018-09-15T16:21:36.856Z,6.50
2018-09-15T16:24:06.124Z,6.20
2018-09-15T16:26:35.555Z,6.00
2018-09-15T16:29:04.718Z,6.10
2018-09-15T16:31:33.951Z,5.50
2018-09-15T16:34:03.023Z,5.75
2018-09-15T16:36:32.255Z,5.37
2018-09-15T16:39:01.394Z,4.75
2018-09-15T16:41:30.513Z,5.40
2018-09-15T16:43:59.700Z,6.60
2018-09-15T16:46:28.931Z,5.08
2018-09-15T16:48:58.296Z,4.87
2018-09-15T16:51:27.428Z,4.90
2018-09-15T16:53:56.592Z,4.83
2018-09-15T16:56:25.722Z,4.65
2018-09-15T16:58:54.995Z,4.87
2018-09-15T17:01:24.116Z,5.23
2018-09-15T17:03:53.379Z,6.03
2018-09-15T17:06:22.720Z,5.35
2018-09-15T17:08:51.879Z,5.53
2018-09-15T17:11:21.106Z,5.57
2018-09-15T17:13:50.360Z,5.62
2018-09-15T17:16:19.756Z,6.20
2018-09-15T17:18:48.984Z,5.63
2018-09-15T17:21:18.105Z,5.95
2018-09-15T17:23:47.385Z,5.90
2018-09-15T17:26:16.708Z,5.97
2018-09-15T17:28:45.977Z,5.50
2018-09-15T17:31:15.429Z,5.50
2018-09-15T17:33:44.683Z,5.50
2018-09-15T17:36:13.899Z,5.00
2018-09-15T17:38:43.116Z,5.47
2018-09-15T17:41:12.466Z,5.57
2018-09-15T17:43:41.910Z,5.28
2018-09-15T17:46:11.270Z,5.28
2018-09-15T17:48:40.502Z,5.28
2018-09-15T17:51:09.788Z,5.10
2018-09-15T17:53:39.010Z,5.30
2018-09-15T17:56:11.625Z,5.30
2018-09-15T17:58:40.879Z,6.10
2018-09-15T18:01:10.275Z,5.70
2018-09-15T18:03:39.673Z,6.12
2018-09-15T18:06:08.939Z,5.55
2018-09-15T18:08:39.251Z,5.55
2018-09-15T18:11:08.472Z,6.30
2018-09-15T18:13:37.703Z,5.70
2018-09-15T18:16:07.160Z,6.35
2018-09-15T18:18:36.329Z,5.80
2018-09-15T18:21:06.414Z,6.22
2018-09-15T18:23:39.061Z,6.00
2018-09-15T18:26:08.811Z,6.55
2018-09-15T18:28:55.957Z,6.60
2018-09-15T18:31:25.834Z,6.62
2018-09-15T18:33:55.480Z,7.67
2018-09-15T18:36:24.966Z,7.22
2018-09-15T18:38:54.528Z,6.40
2018-09-15T18:41:24.486Z,7.20
2018-09-15T18:43:54.031Z,7.20
2018-09-15T18:46:23.483Z,7.17
2018-09-15T18:48:52.926Z,6.65
2018-09-15T18:51:22.707Z,7.03
2018-09-15T18:53:52.426Z,6.33
2018-09-15T18:56:23.079Z,6.60
2018-09-15T18:58:52.979Z,6.97
2018-09-15T19:01:23.178Z,6.70
2018-09-15T19:03:52.431Z,6.58
2018-09-15T19:06:22.883Z,6.30
2018-09-15T19:08:56.035Z,6.42
2018-09-15T19:11:25.395Z,6.60
2018-09-15T19:13:54.656Z,6.83
2018-09-15T19:16:24.174Z,6.85
2018-09-15T19:18:54.096Z,6.35
2018-09-15T19:21:23.203Z,6.80
2018-09-15T19:23:54.492Z,6.97
2018-09-15T19:26:24.578Z,6.90
2018-09-15T19:28:55.270Z,6.70
2018-09-15T19:31:25.499Z,6.62
2018-09-15T19:33:55.390Z,6.87
2018-09-15T19:36:25.472Z,8.43
2018-09-15T19:39:01.208Z,12.30
2018-09-15T19:41:30.503Z,10.88
2018-09-15T19:44:00.428Z,10.00
2018-09-15T19:46:29.712Z,10.45
2018-09-15T19:48:58.979Z,10.10
2018-09-15T19:51:28.418Z,9.90
2018-09-15T19:53:57.685Z,9.65
2018-09-15T19:56:27.439Z,8.75
2018-09-15T19:58:56.720Z,8.95
2018-09-15T20:01:26.107Z,7.70
2018-09-15T20:03:55.541Z,7.95
2018-09-15T20:06:24.823Z,7.58
2018-09-15T20:08:54.846Z,7.33
2018-09-15T20:11:24.699Z,7.20
2018-09-15T20:13:53.917Z,7.67
2018-09-15T20:16:21.627Z,7.08
2018-09-15T20:18:49.387Z,7.47
2018-09-15T20:21:17.120Z,7.22
2018-09-15T20:23:46.363Z,7.12
2018-09-15T20:26:15.550Z,7.53
2018-09-15T20:28:44.762Z,6.95
2018-09-15T20:31:13.902Z,6.85
2018-09-15T20:33:43.043Z,6.80
2018-09-15T20:36:12.296Z,7.07
2018-09-15T20:38:41.414Z,7.20
2018-09-15T20:41:10.720Z,7.10
2018-09-15T20:43:39.889Z,7.03
2018-09-15T20:46:09.040Z,7.28
2018-09-15T20:48:38.295Z,8.00
2018-09-15T20:51:07.612Z,8.08
2018-09-15T20:53:36.914Z,7.65
2018-09-15T20:56:06.152Z,8.90
2018-09-15T20:58:35.390Z,9.08
2018-09-15T21:01:04.608Z,8.60
2018-09-15T21:03:33.967Z,8.80
2018-09-15T21:06:03.414Z,8.40
2018-09-15T21:08:32.716Z,8.85
2018-09-15T21:11:01.988Z,8.45
2018-09-15T21:13:31.118Z,8.93
2018-09-15T21:16:00.325Z,7.92
2018-09-15T21:18:29.611Z,8.60
2018-09-15T21:20:58.879Z,8.58
2018-09-15T21:23:28.105Z,8.03
2018-09-15T21:25:57.399Z,8.15
2018-09-15T21:28:26.674Z,7.72
2018-09-15T21:30:55.798Z,8.00
2018-09-15T21:33:24.971Z,7.95
2018-09-15T21:35:54.186Z,8.30
2018-09-15T21:38:23.491Z,7.75
2018-09-15T21:40:52.854Z,8.13
2018-09-15T21:43:21.988Z,8.33
2018-09-15T21:45:51.366Z,8.15
2018-09-15T21:48:20.591Z,9.20
2018-09-15T21:50:49.867Z,8.35
2018-09-15T21:53:19.082Z,8.90
2018-09-15T21:55:48.299Z,8.05
2018-09-15T21:58:17.454Z,8.08
2018-09-15T22:00:46.782Z,8.68
2018-09-15T22:03:20.192Z,8.20
2018-09-15T22:05:49.481Z,8.63
2018-09-15T22:08:18.743Z,8.68
2018-09-15T22:10:47.871Z,8.33
2018-09-15T22:13:17.146Z,8.25
2018-09-15T22:15:46.424Z,8.17
2018-09-15T22:18:15.630Z,8.55
2018-09-15T22:20:45.003Z,9.25
2018-09-15T22:23:14.127Z,8.88
2018-09-15T22:25:43.475Z,9.35
2018-09-15T22:28:12.763Z,8.88
2018-09-15T22:30:42.142Z,9.33
2018-09-15T22:33:11.366Z,9.70
2018-09-15T22:35:40.676Z,9.85
2018-09-15T22:38:09.859Z,10.08
2018-09-15T22:40:39.047Z,9.65
2018-09-15T22:43:08.429Z,10.97
2018-09-15T22:45:37.737Z,12.13
2018-09-15T22:48:07.064Z,10.35
2018-09-15T22:50:36.335Z,11.53
2018-09-15T22:53:05.571Z,10.78
2018-09-15T22:55:34.763Z,10.90
2018-09-15T22:58:04.030Z,11.10
2018-09-15T23:00:33.139Z,10.63
2018-09-15T23:03:02.230Z,10.32
2018-09-15T23:05:31.439Z,10.30
2018-09-15T23:08:00.841Z,10.35
2018-09-15T23:10:30.252Z,10.03
2018-09-15T23:13:00.048Z,10.40
2018-09-15T23:15:29.425Z,10.00
2018-09-15T23:17:58.655Z,10.20
2018-09-15T23:20:27.956Z,10.43
2018-09-15T23:22:57.171Z,10.75
2018-09-15T23:25:26.432Z,13.10
2018-09-15T23:27:55.576Z,12.95
2018-09-15T23:30:24.719Z,12.20
2018-09-15T23:32:54.279Z,11.95
2018-09-15T23:35:23.557Z,11.47
2018-09-15T23:37:52.940Z,11.55
2018-09-15T23:40:22.151Z,12.13
2018-09-15T23:42:51.186Z,14.85
2018-09-15T23:45:20.451Z,14.43
2018-09-15T23:47:49.613Z,14.07
2018-09-15T23:50:18.847Z,13.95
2018-09-15T23:52:47.910Z,13.35
2018-09-15T23:55:17.133Z,12.78
2018-09-15T23:57:46.327Z,13.10
